Latest Weather Observations for Richmond

IDQ60801

Issued at 2:35 pm EST Sunday 20 April 2014 (issued every 30 minutes, with the page automatically refreshed every 10 minutes)

About weather observations | Map of weather stations | Latest weather observations for QLD | Other Formats
Station Details ID: 030161 Name: RICHMOND AIRPORT Lat: -20.70 Lon: 143.12 Height: 206.3 m
Data from the previous 72 hours. | See also: Recent months at Richmond
Date/Time
EST
Temp
°C
App
Temp
°C
Dew
Point
Rel
Hum
%
Delta-T
°C
Wind Press
QNH
hPa
Press
MSL
hPa
Rain
since 9 am
mm
Dir
 
Spd
km/h
Gust
km/h
Spd
kts
Gust
kts
20/02:30pm 33.4 29.3 8.8 22 14.0 SE 20 26 11 14 1011.9 - 0.0
20/02:00pm 33.4 29.7 9.4 23 13.8 ESE 19 30 10 16 1012.3 - 0.0
20/01:30pm 32.9 29.6 9.7 24 13.3 ESE 17 33 9 18 1012.9 - 0.0
20/01:00pm 32.5 29.3 9.9 25 13.0 E 17 32 9 17 1013.3 - 0.0
20/12:30pm 32.3 29.6 10.4 26 12.7 E 15 24 8 13 1013.8 - 0.0
20/12:00pm 32.5 30.0 11.1 27 12.6 ESE 15 24 8 13 1014.3 1013.2 0.0
20/11:30am 30.9 28.8 12.3 32 11.0 ENE 15 22 8 12 1014.9 - 0.0
20/11:00am 30.7 29.7 13.5 35 10.4 ENE 11 20 6 11 1015.3 - 0.0
20/10:30am 30.0 29.2 14.1 37 9.7 NE 11 17 6 9 1015.7 - 0.0
20/10:00am 28.6 27.7 14.8 43 8.4 ENE 13 20 7 11 1015.8 - 0.0
20/09:30am 27.4 26.3 14.4 45 7.9 NE 13 24 7 13 1015.8 - 0.0
20/09:00am 26.9 26.1 15.0 48 7.2 E 13 17 7 9 1015.7 1014.5 0.0
20/08:30am 25.5 24.7 14.0 49 6.9 ENE 11 17 6 9 1015.2 - 0.0
20/08:00am 22.8 20.6 10.9 47 6.7 E 13 15 7 8 1015.1 - 0.0
20/07:30am 20.4 17.7 9.0 48 6.1 E 13 15 7 8 1014.5 - 0.0
20/07:00am 18.5 16.3 7.9 50 5.5 ESE 9 11 5 6 1014.3 - 0.0
20/06:30am 18.4 16.4 6.9 47 5.8 SE 7 11 4 6 1014.1 - 0.0
20/06:00am 19.2 16.4 7.0 45 6.2 SE 11 13 6 7 1013.7 1012.5 0.0
20/05:30am 19.2 16.3 6.3 43 6.5 SSE 11 13 6 7 1013.3 - 0.0
20/05:00am 19.9 18.2 8.3 47 6.1 SE 7 9 4 5 1013.1 - 0.0
20/04:30am 20.9 18.7 9.2 47 6.3 E 11 13 6 7 1012.9 - 0.0
20/04:00am 21.6 19.4 9.2 45 6.7 E 11 13 6 7 1012.7 - 0.0
20/03:30am 21.6 19.6 8.8 44 6.8 ESE 9 11 5 6 1012.8 - 0.0
20/03:00am 21.9 19.8 8.1 41 7.3 SE 9 13 5 7 1012.9 1011.7 0.0
20/02:30am 22.1 19.5 7.9 40 7.5 SE 11 15 6 8 1013.0 - 0.0
20/02:00am 21.7 18.6 7.2 39 7.5 SSE 13 17 7 9 1013.0 - 0.0
20/01:30am 21.1 17.6 7.3 41 7.2 SSE 15 19 8 10 1013.0 - 0.0
20/01:00am 21.9 18.7 7.0 38 7.7 SSE 13 17 7 9 1013.1 - 0.0
20/12:30am 22.5 18.3 5.9 34 8.5 SSE 17 20 9 11 1013.1 - 0.0
20/12:00am 23.5 19.3 5.9 32 9.0 S 17 20 9 11 1013.1 1011.9 0.0
 
Date/Time
EST
Temp
°C
App
Temp
°C
Dew
Point
Rel
Hum
%
Delta-T
°C
Wind Press
QNH
hPa
Press
MSL
hPa
Rain
since 9 am
mm
Dir
 
Spd
km/h
Gust
km/h
Spd
kts
Gust
kts
19/11:30pm 24.0 19.7 5.4 30 9.5 S 17 20 9 11 1013.1 - 0.0
19/11:00pm 24.5 19.7 4.8 28 10.0 S 19 22 10 12 1013.3 - 0.0
19/10:30pm 25.4 20.8 5.6 28 10.2 S 19 20 10 11 1013.4 - 0.0
19/10:00pm 24.2 21.0 6.9 33 9.1 SSW 13 17 7 9 1013.6 - 0.0
19/09:30pm 24.5 21.6 6.3 31 9.5 SSW 11 13 6 7 1013.5 - 0.0
19/09:00pm 24.5 21.5 5.8 30 9.6 SSW 11 13 6 7 1013.3 1012.1 0.0
19/08:30pm 24.4 22.0 7.1 33 9.1 S 9 15 5 8 1013.1 - 0.0
19/08:00pm 26.6 23.5 7.1 29 10.4 SW 13 13 7 7 1012.7 - 0.0
19/07:30pm 27.4 26.7 6.8 27 11.0 CALM 0 0 0 0 1012.3 - 0.0
19/07:00pm 29.6 28.9 6.9 24 12.3 CALM 0 0 0 0 1012.1 - 0.0
19/06:30pm 30.4 29.6 6.3 22 13.0 CALM 0 0 0 0 1011.8 - 0.0
19/06:00pm 32.0 31.0 5.5 19 14.2 CALM 0 0 0 0 1011.6 1010.4 0.0
19/05:30pm 32.9 31.5 5.5 18 14.7 S 2 9 1 5 1011.5 - 0.0
19/05:00pm 33.7 31.7 6.1 18 15.1 SSW 6 13 3 7 1011.4 - 0.0
19/04:30pm 33.8 30.7 5.4 17 15.3 SSE 11 19 6 10 1011.4 - 0.0
19/04:00pm 33.9 30.6 4.6 16 15.6 SSE 11 19 6 10 1011.3 - 0.0
19/03:30pm 33.8 30.3 7.0 19 14.8 SSW 15 24 8 13 1011.4 - 0.0
19/03:00pm 34.1 31.6 8.0 20 14.7 W 11 20 6 11 1011.6 1010.4 0.0
19/02:30pm 34.1 31.7 7.2 19 15.0 S 9 24 5 13 1011.9 - 0.0
19/02:00pm 33.7 30.1 8.3 21 14.3 WNW 17 24 9 13 1012.3 - 0.0
19/01:30pm 34.4 31.5 8.2 20 14.8 W 13 19 7 10 1012.7 - 0.0
19/01:00pm 32.9 31.5 9.0 23 13.6 SW 6 13 3 7 1013.2 - 0.0
19/12:30pm 31.3 30.0 10.1 27 12.2 SW 7 13 4 7 1013.7 - 0.0
19/12:00pm 31.0 29.4 11.4 30 11.5 W 11 15 6 8 1014.4 1013.3 0.0
19/11:30am 30.5 30.2 11.5 31 11.1 NNE 4 13 2 7 1015.0 - 0.0
19/11:00am 29.3 28.4 11.4 33 10.4 WNW 7 15 4 8 1015.5 - 0.0
19/10:30am 28.7 27.6 10.8 33 10.3 NW 7 13 4 7 1015.9 - 0.0
19/10:00am 27.0 26.3 8.4 31 10.2 W 2 6 1 3 1016.2 - 0.0
19/09:30am 25.8 24.4 7.4 31 9.8 ESE 4 7 2 4 1016.3 - 0.0
19/09:00am 24.0 21.7 5.8 31 9.3 E 7 11 4 6 1016.3 1015.1 0.0
19/08:30am 22.1 18.0 4.6 32 8.7 E 15 17 8 9 1016.1 - 0.0
19/08:00am 20.6 17.8 5.0 36 7.7 SE 9 13 5 7 1016.2 - 0.0
19/07:30am 17.1 14.6 6.6 50 5.2 ESE 9 13 5 7 1015.8 - 0.0
19/07:00am 14.0 11.6 6.8 62 3.5 SSW 9 11 5 6 1015.8 - 0.0
19/06:30am 16.1 14.5 8.1 59 4.1 ESE 6 9 3 5 1015.1 - 0.0
19/06:00am 15.5 14.1 5.7 52 4.7 SE 2 7 1 4 1014.8 1013.6 0.0
19/05:30am 15.1 12.9 6.4 56 4.3 SSE 7 9 4 5 1014.5 - 0.0
19/05:00am 16.4 15.5 6.0 50 5.1 CALM 0 6 0 3 1014.6 - 0.0
19/04:30am 16.6 13.1 5.6 48 5.4 ESE 13 17 7 9 1014.3 - 0.0
19/04:00am 17.6 15.1 4.9 43 6.1 ESE 7 9 4 5 1014.4 - 0.0
19/03:30am 17.7 15.1 4.3 41 6.4 SSE 7 9 4 5 1014.3 - 0.0
19/03:00am 18.8 15.7 3.8 37 7.2 SE 9 11 5 6 1014.6 1013.5 0.0
19/02:30am 19.7 16.2 3.4 34 7.8 ESE 11 15 6 8 1014.8 - 0.0
19/02:00am 20.6 17.2 3.8 33 8.1 E 11 17 6 9 1015.0 - 0.0
19/01:30am 21.0 17.5 3.7 32 8.4 SE 11 13 6 7 1014.9 - 0.0
19/01:00am 20.3 16.5 3.9 34 7.9 SE 13 15 7 8 1015.0 - 0.0
19/12:30am 20.9 17.4 3.6 32 8.4 SE 11 13 6 7 1015.2 - 0.0
19/12:00am 20.5 16.6 3.3 32 8.2 SSE 13 13 7 7 1015.3 1014.1 0.0
 
Date/Time
EST
Temp
°C
App
Temp
°C
Dew
Point
Rel
Hum
%
Delta-T
°C
Wind Press
QNH
hPa
Press
MSL
hPa
Rain
since 9 am
mm
Dir
 
Spd
km/h
Gust
km/h
Spd
kts
Gust
kts
18/11:30pm 20.8 16.5 3.1 31 8.5 SSE 15 17 8 9 1015.2 - 0.0
18/11:00pm 21.6 17.3 3.3 30 8.8 SSE 15 17 8 9 1015.2 - 0.0
18/10:30pm 23.3 19.0 3.3 27 9.8 SE 15 17 8 9 1015.3 - 0.0
18/10:00pm 23.9 18.7 2.7 25 10.3 SSE 19 22 10 12 1015.0 - 0.0
18/09:30pm 23.7 18.6 3.1 26 10.0 SSE 19 20 10 11 1015.1 - 0.0
18/09:00pm 23.0 18.1 4.0 29 9.4 S 19 20 10 11 1014.9 1013.7 0.0
18/08:30pm 23.2 19.2 5.1 31 9.1 S 15 17 8 9 1014.6 - 0.0
18/08:00pm 24.0 20.5 5.4 30 9.5 S 13 13 7 7 1014.2 - 0.0
18/07:30pm 24.9 21.5 5.7 29 9.9 S 13 15 7 8 1013.9 - 0.0
18/07:00pm 26.7 22.9 5.6 26 11.0 S 15 15 8 8 1013.4 - 0.0
18/06:30pm 29.0 25.0 5.1 22 12.5 S 15 19 8 10 1013.1 - 0.0
18/06:00pm 31.6 26.7 5.2 19 14.0 S 20 26 11 14 1012.7 1011.5 0.0
18/05:30pm 32.8 28.3 6.2 19 14.5 S 19 24 10 13 1012.5 - 0.0
18/05:00pm 33.4 28.8 6.6 19 14.7 SSW 20 28 11 15 1012.4 - 0.0
18/04:30pm 33.9 30.2 7.8 20 14.6 S 17 26 9 14 1012.2 - 0.0
18/04:00pm 33.3 29.8 8.7 22 14.0 S 17 24 9 13 1012.1 - 0.0
18/03:30pm 33.6 31.6 10.2 24 13.6 S 11 20 6 11 1012.1 - 0.0
18/03:00pm 34.3 32.7 10.2 23 14.1 S 9 19 5 10 1012.2 1011.0 0.0
18/02:30pm 33.1 30.8 10.4 25 13.2 S 13 26 7 14 1012.5 - 0.0
18/02:00pm 33.6 32.2 10.9 25 13.3 SW 9 15 5 8 1012.7 - 0.0
18/01:30pm 33.5 31.1 11.4 26 13.1 ESE 15 35 8 19 1013.1 - 0.0
18/01:00pm 32.2 30.6 11.4 28 12.2 SE 11 20 6 11 1013.6 - 0.0
18/12:30pm 32.4 31.6 11.6 28 12.3 E 7 19 4 10 1014.0 - 0.0
18/12:00pm 31.5 30.6 13.7 33 10.8 ESE 11 20 6 11 1014.5 1013.4 0.0
18/11:30am 30.9 29.9 15.7 39 9.5 E 15 26 8 14 1015.2 - 0.0
18/11:00am 30.0 29.0 15.7 42 8.9 E 15 26 8 14 1015.4 - 0.0
18/10:30am 28.7 28.3 15.2 43 8.3 ESE 11 19 6 10 1015.8 - 0.0
18/10:00am 27.3 27.4 15.6 48 7.2 ESE 9 13 5 7 1016.0 - 0.0
18/09:30am 26.2 24.8 13.3 45 7.6 E 13 22 7 12 1016.1 - 0.0
18/09:00am 25.0 23.0 12.6 46 7.2 ESE 15 20 8 11 1016.0 1014.8 0.0
18/08:30am 23.1 20.2 9.8 43 7.3 ESE 15 19 8 10 1016.0 - 0.0
18/08:00am 22.1 18.6 8.9 43 7.1 ESE 17 20 9 11 1016.0 - 0.0
18/07:30am 20.5 17.7 8.5 46 6.3 ESE 13 15 7 8 1015.8 - 0.0
18/07:00am 18.3 15.6 9.1 55 4.9 ESE 13 15 7 8 1015.3 - 0.0
18/06:30am 17.2 15.8 9.6 61 4.0 SSE 7 11 4 6 1015.3 - 0.0
18/06:00am 17.5 15.0 9.7 60 4.1 SE 13 15 7 8 1015.0 1013.8 0.0
18/05:30am 17.7 15.9 9.6 59 4.3 ESE 9 11 5 6 1014.8 - 0.0
18/05:00am 18.1 15.4 8.9 55 4.8 SE 13 15 7 8 1014.4 - 0.0
18/04:30am 18.5 16.1 8.7 53 5.1 SE 11 13 6 7 1014.2 - 0.0
18/04:00am 19.8 17.0 8.5 48 5.9 SE 13 19 7 10 1014.1 - 0.0
18/03:30am 20.5 17.5 9.1 48 6.1 SE 15 19 8 10 1014.0 - 0.0
18/03:00am 18.8 16.5 10.4 58 4.6 S 13 17 7 9 1014.3 1013.2 0.0
18/02:30am 21.7 19.2 12.3 55 5.4 ESE 17 20 9 11 1014.4 - 0.0
18/02:00am 22.2 19.8 12.7 55 5.5 ESE 17 19 9 10 1014.6 - 0.0
18/01:30am 24.1 20.5 10.0 41 7.8 ESE 19 20 10 11 1014.6 - 0.0
18/01:00am 24.9 21.2 8.0 34 9.1 ESE 17 20 9 11 1015.0 - 0.0
18/12:30am 24.9 20.3 8.0 34 9.1 ESE 22 26 12 14 1015.2 - 0.0
18/12:00am 26.1 20.9 7.2 30 10.1 ESE 24 35 13 19 1015.5 1014.3 0.0
 
Date/Time
EST
Temp
°C
App
Temp
°C
Dew
Point
Rel
Hum
%
Delta-T
°C
Wind Press
QNH
hPa
Press
MSL
hPa
Rain
since 9 am
mm
Dir
 
Spd
km/h
Gust
km/h
Spd
kts
Gust
kts
17/11:30pm 25.3 21.0 7.9 33 9.4 SSE 20 26 11 14 1015.3 - 0.0
17/11:00pm 24.8 21.6 9.9 39 8.3 SE 17 20 9 11 1015.6 - 0.0
17/10:30pm 24.7 21.6 10.2 40 8.1 ESE 17 20 9 11 1015.6 - 0.0
17/10:00pm 25.4 22.2 10.1 38 8.5 SE 17 20 9 11 1015.4 - 0.0
17/09:30pm 26.3 23.0 9.6 35 9.3 SE 17 22 9 12 1015.1 - 0.0
17/09:00pm 27.2 23.6 10.0 34 9.7 SSE 19 24 10 13 1015.0 1013.8 0.0
17/08:30pm 26.1 23.6 12.2 42 8.1 SSE 17 19 9 10 1014.5 - 0.0
17/08:00pm 26.7 24.9 13.4 43 7.9 SSE 15 17 8 9 1014.1 - 0.0
17/07:30pm 27.3 26.0 13.6 43 8.2 SSE 13 15 7 8 1013.5 - 0.0
17/07:00pm 28.2 26.9 13.7 41 8.7 SSE 13 13 7 7 1013.1 - 0.0
17/06:30pm 29.7 28.3 13.5 37 9.8 SSE 13 15 7 8 1012.6 - 0.0
17/06:00pm 31.8 29.2 13.1 32 11.3 S 19 24 10 13 1012.3 1011.1 0.0
17/05:30pm 32.7 30.9 13.4 31 11.7 S 15 20 8 11 1012.0 - 0.0
17/05:00pm 33.5 30.8 13.5 29 12.2 SSE 20 24 11 13 1011.9 - 0.0
17/04:30pm 33.6 32.8 14.1 30 12.0 ESE 11 20 6 11 1011.9 - 0.0
17/04:00pm 33.5 32.5 14.5 31 11.8 SE 13 19 7 10 1012.0 - 0.0
17/03:30pm 33.6 32.2 14.6 31 11.8 ESE 15 20 8 11 1012.1 - 0.0
17/03:00pm 34.0 33.5 15.0 32 11.9 SW 11 19 6 10 1012.3 1011.1 0.0

Other Formats:

Comma delimited format used in spreadsheet applications
http://www.bom.gov.au/fwo/IDQ60801/IDQ60801.94341.axf

JavaScript Object Notation format (JSON) in row-major order
http://www.bom.gov.au/fwo/IDQ60801/IDQ60801.94341.json